Station: Katanning Rs  

  Atmospheric Gas Attenuation - ITU Rec 676-11   ----------------- dB/100km -----------------
Date Time Temp RH % AH g/m3 Dew Point Wind Direction Speed kph Gust kph Barometer mB Rainfall Since 9am 24GHz 47GHz 76GHz 122GHz 134GHz 241GHz
08/05 09:20 14.5 67 8.33 8.4 22 24 1033.5 0 19.0 26.0 39.3 102.7 95.6 328.6
08/05 09:10 14.4 71 8.78 9.2 19 20 1033.5 0 19.9 26.8 41.1 107.7 101.7 349.9
08/05 09:00 13.9 74 8.87 9.3 15 24 1033.5 0 20.1 27.1 41.8 109.4 103.6 356.3
08/05 08:50 12.8 81 9.07 9.6 13 15 1033.5 0.2 20.6 27.7 43.2 113.2 107.8 371.0
08/05 08:40 12 83 8.85 9.2 9 13 1033.5 0.2 20.2 27.6 42.7 111.8 105.9 364.1
08/05 08:30 11.3 85 8.67 8.9 9 13 1033.5 0.2 19.8 27.5 42.3 110.8 104.3 358.6
08/05 08:20 10.5 88 8.54 8.6 9 11 1033.6 0.2 19.6 27.6 42.2 110.5 103.6 356.0
08/05 08:10 10 88 8.27 8.2 9 11 1033.6 0.2 19.0 27.3 41.3 108.1 100.5 345.0
08/05 08:00 9.4 90 8.14 7.8 7 9 1033.4 0.2 18.8 27.2 41.1 107.5 99.4 341.3
08/05 07:50 8.9 91 7.97 7.6 7 7 1033.4 0.2 18.5 27.1 40.6 106.2 97.7 335.1
08/05 07:40 8.5 91 7.77 7.2 6 7 1033.4 0.2 18.0 26.9 40.0 104.5 95.4 327.0
08/05 07:30 8 93 7.69 6.9 6 9 1033.3 0.2 17.9 26.9 39.9 104.2 94.9 325.2
08/05 07:20 7.7 93 7.54 6.6 6 7 1033.2 0.2 17.6 26.7 39.4 102.9 93.2 319.0
08/05 07:10 7.6 94 7.58 6.7 6 6 1033.1 0.2 17.7 26.8 39.6 103.5 93.8 321.4
08/05 07:00 7.4 94 7.48 6.5 2 4 1033.2 0.2 17.5 26.7 39.3 102.6 92.7 317.3
08/05 06:50 7.5 94 7.53 6.6 4 4 1033.1 0.2 17.6 26.7 39.4 103.1 93.2 319.3
08/05 06:40 7.5 94 7.53 6.6 6 6 1033 0.2 17.6 26.7 39.4 103.1 93.2 319.3
08/05 06:30 7.4 93 7.4 6.3 9 13 1033 0.2 17.3 26.5 38.9 101.7 91.5 313.3
08/05 06:20 7.5 93 7.45 6.4 9 11 1032.9 0.2 17.4 26.6 39.1 102.1 92.1 315.3
08/05 06:10 7.5 93 7.45 6.4 11 11 1032.9 0.2 17.4 26.6 39.1 102.1 92.1 315.3
08/05 06:00 7.6 93 7.5 6.5 9 13 1032.8 0.2 17.5 26.7 39.2 102.6 92.7 317.4
08/05 05:50 7.6 93 7.5 6.5 9 9 1032.8 0.2 17.5 26.7 39.2 102.6 92.7 317.4
08/05 05:40 7.7 91 7.38 6.4 7 7 1032.8 0.2 17.2 26.4 38.7 101.1 90.9 311.1
08/05 05:30 8 92 7.61 6.8 7 9 1032.8 0.2 17.7 26.7 39.5 103.3 93.7 321.1
08/05 05:20 8 91 7.53 6.7 7 9 1032.7 0.2 17.6 26.6 39.2 102.4 92.6 317.2
08/05 05:10 8.1 91 7.58 6.8 9 11 1032.6 0.2 17.7 26.6 39.3 102.8 93.2 319.2
08/05 05:00 8.2 91 7.62 6.8 9 11 1032.5 0.2 17.7 26.7 39.4 103.1 93.6 320.7
08/05 04:50 8.2 91 7.62 6.9 9 9 1032.5 0.2 17.7 26.7 39.4 103.1 93.6 320.7
08/05 04:40 8.1 91 7.58 6.7 9 11 1032.5 0.2 17.7 26.6 39.3 102.8 93.2 319.2
08/05 04:30 8.1 92 7.66 6.9 9 11 1032.4 0.2 17.8 26.8 39.6 103.7 94.3 323.0
08/05 04:20 8.3 91 7.67 6.9 9 11 1032.4 0.2 17.8 26.7 39.6 103.5 94.2 322.7
08/05 04:10 8.3 91 7.67 6.9 11 11 1032.2 0.2 17.8 26.7 39.6 103.5 94.2 322.6
08/05 04:00 8.2 91 7.62 6.8 9 13 1032.2 0.2 17.7 26.7 39.4 103.1 93.6 320.6
08/05 03:50 8.3 91 7.67 6.9 9 9 1032.2 0.2 17.8 26.7 39.6 103.5 94.2 322.6
08/05 03:40 8.5 91 7.77 7.1 9 11 1032.2 0.2 18.0 26.8 39.9 104.4 95.3 326.7
08/05 03:30 8.5 91 7.77 7.1 7 11 1032.1 0.2 18.0 26.8 39.9 104.4 95.3 326.7
08/05 03:20 8.6 91 7.82 7.3 7 9 1032.2 0.2 18.1 26.9 40.1 104.8 95.9 328.7
08/05 03:10 8.5 91 7.77 7.2 6 7 1032.2 0.2 18.0 26.8 39.9 104.4 95.3 326.7
08/05 03:00 8.5 92 7.86 7.3 6 7 1032.4 0.2 18.2 27.0 40.3 105.4 96.6 331.2
08/05 02:50 8.7 91 7.87 7.4 7 9 1032.4 0.2 18.3 26.9 40.2 105.3 96.5 330.8
08/05 02:40 8.7 93 8.05 7.6 7 7 1032.4 0.2 18.6 27.2 41.0 107.3 99.0 339.6
08/05 02:30 8.6 93 7.99 7.5 7 9 1032.6 0.2 18.5 27.2 40.8 106.8 98.3 337.2
08/05 02:20 8.8 91 7.92 7.5 7 7 1032.6 0.2 18.4 27.0 40.4 105.7 97.1 332.9
08/05 02:10 8.9 91 7.97 7.6 7 7 1032.6 0.2 18.5 27.1 40.6 106.1 97.6 334.9
08/05 02:00 9 92 8.11 7.8 7 9 1032.6 0.2 18.8 27.3 41.1 107.6 99.5 341.3
08/05 01:50 9.1 92 8.17 7.8 7 9 1032.5 0.2 18.9 27.3 41.3 108.1 100.2 343.8
08/05 01:40 9.3 92 8.27 8 9 9 1032.5 0.2 19.1 27.4 41.6 109.0 101.3 347.8
08/05 01:30 9.3 92 8.27 8.1 7 13 1032.4 0.2 19.1 27.4 41.6 109.0 101.3 347.8
08/05 01:20 9.5 92 8.38 8.2 7 9 1032.4 0.2 19.3 27.6 42.0 109.9 102.6 352.3
08/05 01:10 9.8 91 8.45 8.4 7 11 1032.5 0.2 19.4 27.6 42.1 110.3 103.2 354.4
08/05 01:00 9.7 91 8.39 8.3 7 9 1032.6 0.2 19.3 27.5 41.9 109.8 102.5 352.0
08/05 00:50 9.9 91 8.5 8.5 9 11 1032.5 0.2 19.5 27.6 42.3 110.8 103.8 356.5
08/05 00:40 10 91 8.55 8.6 9 11 1032.4 0.2 19.6 27.7 42.4 111.2 104.3 358.4
08/05 00:30 10 91 8.55 8.6 13 17 1032.5 0.2 19.6 27.7 42.5 111.2 104.3 358.5
08/05 00:20 10.1 91 8.61 8.7 11 13 1032.5 0.2 19.8 27.8 42.7 111.7 105.0 360.9
08/05 00:10 10.3 92 8.81 9 13 17 1032.6 0.2 20.2 28.1 43.4 113.7 107.6 369.9
08/05 00:00 10.4 91 8.77 9 11 17 1032.5 0.2 20.1 28.0 43.2 113.1 106.9 367.4
07/05 23:50 10.5 91 8.83 9.1 11 13 1032.7 0.2 20.2 28.0 43.4 113.7 107.6 370.0
07/05 23:40 10.6 91 8.88 9.2 11 13 1032.7 0.2 20.3 28.1 43.5 114.1 108.2 372.0
07/05 23:30 10.6 90 8.79 9 11 15 1032.6 0.2 20.1 27.9 43.2 113.1 106.9 367.5
07/05 23:20 10.7 90 8.84 9.1 11 13 1032.6 0.2 20.2 28.0 43.3 113.5 107.4 369.5
07/05 23:10 10.8 89 8.8 9 11 15 1032.7 0.2 20.1 27.9 43.1 112.9 106.8 367.1
07/05 23:00 10.8 89 8.8 9.1 11 17 1032.7 0.2 20.1 27.9 43.1 112.9 106.8 367.1
07/05 22:50 10.9 88 8.75 9 13 15 1032.8 0.2 20.0 27.8 42.8 112.2 105.9 364.2
07/05 22:40 10.9 87 8.66 8.8 11 13 1032.8 0.2 19.8 27.6 42.4 111.2 104.7 359.8
07/05 22:30 11.1 85 8.56 8.7 11 17 1032.9 0.2 19.6 27.4 41.9 109.8 103.0 354.0
07/05 22:20 11.3 84 8.57 8.7 11 13 1032.9 0.2 19.6 27.3 41.9 109.6 102.9 353.6
07/05 22:10 11.4 83 8.52 8.6 11 13 1032.9 0.2 19.5 27.2 41.6 108.9 102.1 350.7
07/05 22:00 11.5 82 8.47 8.5 13 20 1032.8 0.2 19.4 27.1 41.3 108.2 101.2 347.8
07/05 21:50 11.6 81 8.42 8.4 15 19 1032.8 0.2 19.3 27.0 41.1 107.5 100.4 345.0
07/05 21:40 11.6 78 8.11 8 13 17 1032.7 0.2 18.6 26.5 39.8 104.1 96.2 330.2
07/05 21:30 11.8 77 8.11 7.9 13 17 1032.6 0.2 18.6 26.4 39.7 103.8 95.9 329.3
07/05 21:20 11.8 75 7.89 7.5 13 15 1032.6 0.2 18.1 26.1 38.8 101.4 93.0 319.0
07/05 21:10 11.9 73 7.73 7.2 13 17 1032.5 0.2 17.8 25.8 38.1 99.5 90.7 311.0
07/05 21:00 12.1 71 7.61 7 13 19 1032.4 0.2 17.5 25.5 37.5 98.0 88.9 304.7
07/05 20:50 12.2 68 7.34 6.6 13 15 1032.2 0.2 17.0 25.0 36.4 95.0 85.2 291.8
07/05 20:40 12.3 68 7.38 6.7 15 17 1032.1 0.2 17.0 25.1 36.5 95.3 85.6 293.3
07/05 20:30 12.2 68 7.34 6.5 9 13 1032.2 0.2 17.0 25.0 36.4 95.0 85.2 291.8
07/05 20:20 12.6 67 7.41 6.6 9 11 1032.1 0.2 17.1 25.0 36.5 95.2 85.7 293.5
07/05 20:10 12.9 66 7.44 6.7 13 15 1032 0.2 17.1 25.0 36.4 95.2 85.7 293.8
07/05 20:00 13 66 7.49 6.8 11 17 1032.1 0.2 17.2 25.0 36.6 95.6 86.3 295.7
07/05 19:50 13.2 64 7.35 6.7 9 11 1032.1 0.2 16.9 24.8 35.9 93.9 84.2 288.6
07/05 19:40 13.5 64 7.49 6.8 9 13 1032 0.2 17.2 24.9 36.4 95.0 85.7 293.8
07/05 19:30 13.6 63 7.41 6.7 13 20 1032 0.2 17.0 24.7 36.0 94.0 84.6 289.8
07/05 19:20 13.6 62 7.3 6.4 13 20 1031.9 0.2 16.8 24.6 35.6 92.9 83.2 284.9
07/05 19:10 13.9 61 7.31 6.5 11 17 1031.9 0.2 16.8 24.5 35.5 92.6 83.0 284.2
07/05 19:00 14.3 59 7.25 6.4 13 19 1031.8 0.2 16.7 24.3 35.1 91.5 81.8 280.1
07/05 18:50 14.6 58 7.26 6.6 11 15 1031.7 0.2 16.7 24.2 35.0 91.3 81.6 279.5
07/05 18:40 14.6 58 7.26 6.4 9 13 1031.7 0.2 16.7 24.2 35.0 91.3 81.6 279.5
07/05 18:30 14.8 57 7.22 6.4 13 19 1031.6 0.2 16.6 24.1 34.7 90.6 80.9 277.0
07/05 18:20 14.9 56 7.14 6.2 11 13 1031.4 0.2 16.4 24.0 34.4 89.7 79.8 273.1
07/05 18:10 15.1 55 7.1 6.1 9 11 1031.3 0.2 16.3 23.8 34.1 89.1 79.1 270.7
07/05 18:00 15.4 55 7.23 6.4 11 17 1031.4 0.2 16.6 24.0 34.5 90.1 80.4 275.4
07/05 17:50 15.7 54 7.22 6.4 11 13 1031.3 0.2 16.6 23.9 34.3 89.6 79.9 273.9
07/05 17:40 16 53 7.22 6.4 11 13 1031.2 0.2 16.5 23.8 34.2 89.3 79.6 272.8
07/05 17:30 16.6 51 7.2 6.4 17 22 1031.1 0.2 16.5 23.6 33.9 88.4 78.8 269.9
07/05 17:20 16.8 51 7.29 6.6 19 24 1031 0.2 16.7 23.7 34.1 89.1 79.7 273.1
07/05 17:10 17.2 50 7.32 6.7 19 24 1031 0.2 16.7 23.6 34.1 88.9 79.6 273.0
07/05 17:00 17.5 49 7.3 6.7 17 22 1031 0.2 16.7 23.5 33.9 88.4 79.1 271.2
07/05 16:50 17.9 48 7.33 6.7 17 22 1031.1 0.2 16.7 23.5 33.8 88.3 79.1 271.1

Last Refresh: 08-May-2026 11:04:09

Bureau of Meteorology